Time;durP1;ratioP1;P1;durP2;ratioP2;P2;SDS_P1;SDS_P2;PMS_P1;PMS_P2;Temp;Humidity;BMP_temperature;BMP_pressure;BME280_temperature;BME280_humidity;BME280_pressure;Samples;Min_cycle;Max_cycle;Signal;HPM_P1;HPM_P2
2021/07/14 00:01:55;;;;;;;62.20;43.90;;;19.30;99.90;;;20.81;100.00;99870.06;4777560;29;20011;-90
2021/07/14 00:04:27;;;;;;;57.60;42.83;;;19.30;99.90;;;20.82;100.00;99879.38;4861725;29;20045;-90
2021/07/14 00:06:59;;;;;;;71.93;48.40;;;19.30;99.90;;;20.82;100.00;99873.72;4857771;29;20052;-90
2021/07/14 00:10:15;;;;;;;;;;;;;;;;;;;;;
2021/07/14 00:38:05;;;;;;;;;;;;;;;;;;;;;
2021/07/14 00:41:53;;;;;;;;;;;;;;;;;;;;;
2021/07/14 00:44:48;;;;;;;58.22;42.80;;;19.20;99.90;;;20.72;100.00;99866.28;4917569;29;20032;-89
2021/07/14 00:48:56;;;;;;;;;;;;;;;;;;;;;
2021/07/14 00:52:36;;;;;;;54.28;38.65;;;19.20;99.90;;;20.76;100.00;99878.34;4897052;29;20045;-92
2021/07/14 00:56:15;;;;;;;55.15;39.65;;;19.20;99.90;;;20.75;100.00;99882.41;4896259;29;20032;-89
2021/07/14 00:58:46;;;;;;;57.20;41.83;;;19.20;99.90;;;20.66;100.00;99871.69;4901178;29;20096;-92
2021/07/14 01:01:25;;;;;;;62.10;44.25;;;19.10;99.90;;;20.69;100.00;99882.16;4900492;29;20092;-91
2021/07/14 01:05:11;;;;;;;58.95;40.30;;;19.10;99.90;;;20.71;100.00;99870.38;4899749;29;20036;-90
2021/07/14 01:20:29;;;;;;;54.90;39.35;;;19.10;99.90;;;20.72;100.00;99877.63;4880543;29;20037;-89
2021/07/14 01:23:58;;;;;;;52.85;36.75;;;19.10;99.90;;;20.69;100.00;99879.31;4916851;29;20045;-90
2021/07/14 01:27:25;;;;;;;60.40;40.83;;;19.10;99.90;;;20.65;100.00;99872.94;4902422;29;20028;-91
2021/07/14 01:30:04;;;;;;;57.17;40.00;;;19.10;99.90;;;20.63;100.00;99866.91;4900529;29;20032;-90
2021/07/14 01:33:55;;;;;;;47.67;35.13;;;19.00;99.90;;;20.65;100.00;99870.09;4900034;29;20602;-90
2021/07/14 01:37:53;;;;;;;54.55;36.97;;;19.00;99.90;;;20.62;100.00;99856.00;4882573;29;20029;-90
2021/07/14 01:40:23;;;;;;;55.25;39.38;;;19.00;99.90;;;20.61;100.00;99865.78;4840891;29;20041;-92
2021/07/14 01:43:00;;;;;;;60.50;42.78;;;19.00;99.90;;;20.53;100.00;99856.66;4882989;29;20032;-88
2021/07/14 01:46:08;;;;;;;61.70;43.38;;;19.10;99.90;;;20.51;100.00;99844.97;4901284;29;20024;-90
2021/07/14 01:52:57;;;;;;;58.17;40.25;;;19.00;99.90;;;20.58;100.00;99843.97;4892510;29;20048;-90
2021/07/14 01:55:55;;;;;;;61.05;39.80;;;19.00;99.90;;;20.56;100.00;99844.41;4899196;29;20032;-89
2021/07/14 02:07:51;;;;;;;;;;;;;;;;;;;;;
2021/07/14 02:10:23;;;;;;;64.07;43.60;;;18.90;99.90;;;20.46;100.00;99834.94;4919324;29;20131;-90
2021/07/14 02:17:00;;;;;;;58.45;40.03;;;18.90;99.90;;;20.47;100.00;99828.03;4899371;29;20148;-89
2021/07/14 02:20:49;;;;;;;57.28;40.17;;;19.00;99.90;;;20.48;100.00;99823.94;4882469;29;20117;-89
2021/07/14 02:23:41;;;;;;;59.88;40.40;;;19.00;99.90;;;20.48;100.00;99817.47;4896332;29;20037;-89
2021/07/14 02:26:45;;;;;;;52.83;37.50;;;19.00;99.90;;;20.45;100.00;99813.47;4868553;29;20044;-90
2021/07/14 02:29:27;;;;;;;55.75;36.92;;;19.00;99.90;;;20.46;100.00;99822.78;4920973;29;20036;-89
2021/07/14 02:46:33;;;;;;;;;;;;;;;;;;;;;
2021/07/14 02:53:40;;;;;;;46.75;33.25;;;19.00;99.90;;;20.56;100.00;99818.88;4811322;29;20047;-90
2021/07/14 02:57:32;;;;;;;63.13;39.00;;;19.00;99.90;;;20.56;100.00;99824.53;4807912;29;20038;-89
2021/07/14 03:04:30;;;;;;;62.55;42.83;;;19.00;99.90;;;20.45;100.00;99807.81;4811731;29;20049;-91
2021/07/14 03:07:59;;;;;;;55.90;38.47;;;19.00;99.90;;;20.43;100.00;99812.34;4823492;29;20051;-90
2021/07/14 03:19:55;;;;;;;;;;;;;;;;;;;;;
2021/07/14 03:23:33;;;;;;;66.18;42.50;;;19.00;99.90;;;20.45;100.00;99812.69;4847373;29;20097;-90
2021/07/14 03:26:12;;;;;;;73.93;43.05;;;18.90;99.90;;;20.44;100.00;99811.09;4836448;29;20041;-89
2021/07/14 03:30:26;;;;;;;;;;;;;;;;;;;;;
2021/07/14 03:33:00;;;;;;;65.47;41.00;;;19.00;99.90;;;20.38;100.00;99802.34;4844394;29;20101;-87
2021/07/14 03:36:32;;;;;;;64.72;42.25;;;18.90;99.90;;;20.40;100.00;99799.03;4912291;29;20103;-91
2021/07/14 03:39:00;;;;;;;;;;;18.90;99.90;;;20.42;100.00;99808.69;4923197;29;20088;-91
2021/07/14 03:41:30;;;;;;;57.38;35.97;;;18.90;99.90;;;20.41;100.00;99807.13;4938479;29;19911;-90
2021/07/14 03:44:10;;;;;;;56.25;37.72;;;18.90;99.90;;;20.42;100.00;99810.75;4923608;29;20036;-88
2021/07/14 03:46:38;;;;;;;69.82;43.67;;;18.90;99.90;;;20.42;100.00;99805.09;4922927;29;20039;-88
2021/07/14 03:49:05;;;;;;;56.67;35.97;;;18.90;99.90;;;20.40;100.00;99810.38;4922514;29;20028;-91
2021/07/14 03:51:35;;;;;;;62.05;40.45;;;18.90;99.90;;;20.35;100.00;99806.06;4923841;29;20087;-90
2021/07/14 03:54:01;;;;;;;66.03;40.70;;;18.90;99.90;;;20.42;100.00;99808.69;4923066;29;20029;-90
2021/07/14 03:56:30;;;;;;;55.03;37.60;;;18.90;99.90;;;20.39;100.00;99803.91;4922665;29;20068;-90
2021/07/14 03:58:56;;;;;;;61.47;38.15;;;18.90;99.90;;;20.41;100.00;99809.97;4923110;29;20511;-89
2021/07/14 04:01:28;;;;;;;61.45;38.67;;;18.90;99.90;;;20.41;100.00;99818.47;4923455;29;20036;-91
2021/07/14 04:03:57;;;;;;;56.72;37.45;;;18.90;99.90;;;20.38;100.00;99818.56;4923275;29;20397;-91
2021/07/14 04:06:34;;;;;;;55.03;37.60;;;18.80;99.90;;;20.39;100.00;99820.94;4923702;29;20137;-91
2021/07/14 04:09:25;;;;;;;56.20;38.65;;;18.80;99.90;;;20.38;100.00;99827.06;4923544;29;20028;-89
2021/07/14 04:12:01;;;;;;;57.63;39.00;;;18.90;99.90;;;20.35;100.00;99817.41;4923607;29;20180;-89
2021/07/14 04:14:30;;;;;;;61.10;39.83;;;18.80;99.90;;;20.37;100.00;99819.78;4925244;29;20039;-89
2021/07/14 04:16:57;;;;;;;58.17;38.80;;;18.80;99.90;;;20.38;100.00;99812.88;4924907;29;20038;-91
2021/07/14 04:19:26;;;;;;;49.28;34.42;;;18.80;99.90;;;20.40;100.00;99824.56;4926745;29;20076;-92
2021/07/14 04:21:53;;;;;;;62.28;38.10;;;18.80;99.90;;;20.37;100.00;99812.09;4925205;29;20056;-91
2021/07/14 04:24:20;;;;;;;66.32;42.10;;;18.80;99.90;;;20.37;100.00;99819.78;4923462;29;20034;-90
2021/07/14 04:26:47;;;;;;;70.38;43.60;;;18.80;99.90;;;20.40;100.00;99821.72;4920131;29;20064;-89
2021/07/14 04:29:13;;;;;;;58.63;38.47;;;18.80;99.90;;;20.41;100.00;99814.81;4920733;29;20036;-91
